createdAt,value
2023-02-27T00:01:35.064Z,1.17
2023-02-27T00:07:40.363Z,1.48
2023-02-27T00:13:43.780Z,1.00
2023-02-27T00:19:47.154Z,1.50
2023-02-27T00:25:54.805Z,1.38
2023-02-27T00:31:58.272Z,1.15
2023-02-27T00:38:01.841Z,1.20
2023-02-27T00:44:06.855Z,1.05
2023-02-27T00:50:11.011Z,1.10
2023-02-27T00:56:14.422Z,0.95
2023-02-27T01:02:19.342Z,1.20
2023-02-27T01:08:22.820Z,1.50
2023-02-27T01:14:26.206Z,1.02
2023-02-27T01:20:31.013Z,1.02
2023-02-27T01:26:34.469Z,1.20
2023-02-27T01:32:38.159Z,1.13
2023-02-27T01:38:42.953Z,1.00
2023-02-27T01:45:11.984Z,1.10
2023-02-27T01:51:19.116Z,1.13
2023-02-27T01:57:23.879Z,1.27
2023-02-27T02:03:31.698Z,1.52
2023-02-27T02:09:36.429Z,1.60
2023-02-27T02:15:43.206Z,1.10
2023-02-27T02:22:00.296Z,1.43
2023-02-27T02:28:10.044Z,1.20
2023-02-27T02:34:32.804Z,1.10
2023-02-27T02:40:40.272Z,1.42
2023-02-27T02:46:47.415Z,1.33
2023-02-27T02:52:53.935Z,1.30
2023-02-27T02:59:01.579Z,1.20
2023-02-27T03:05:08.544Z,1.15
2023-02-27T03:11:12.325Z,1.13
2023-02-27T03:17:20.946Z,1.20
2023-02-27T03:23:27.077Z,1.00
2023-02-27T03:29:33.333Z,1.20
2023-02-27T03:35:43.368Z,1.02
2023-02-27T03:41:50.520Z,1.33
2023-02-27T03:47:54.494Z,1.35
2023-02-27T03:54:03.388Z,1.52
2023-02-27T04:00:08.559Z,1.37
2023-02-27T04:06:25.956Z,1.23
2023-02-27T04:12:38.217Z,1.27
2023-02-27T04:18:50.966Z,0.90
2023-02-27T04:24:57.544Z,1.30
2023-02-27T04:31:04.690Z,1.60
2023-02-27T04:37:10.568Z,1.60
2023-02-27T04:43:15.700Z,1.40
2023-02-27T04:49:22.948Z,1.20
2023-02-27T04:55:29.046Z,1.30
2023-02-27T05:01:36.485Z,1.50
2023-02-27T05:07:43.450Z,1.33
2023-02-27T05:13:48.731Z,1.57
2023-02-27T05:19:52.149Z,1.57
2023-02-27T05:25:59.144Z,2.00
2023-02-27T05:32:06.921Z,1.87
2023-02-27T05:38:11.875Z,1.83
2023-02-27T05:44:18.378Z,1.90
2023-02-27T05:50:23.339Z,2.10
2023-02-27T05:56:28.650Z,3.57
2023-02-27T06:02:33.710Z,3.30
2023-02-27T06:08:37.509Z,4.03
2023-02-27T06:14:41.002Z,2.25
2023-02-27T06:20:46.622Z,2.00
2023-02-27T06:26:50.057Z,3.83
2023-02-27T06:32:53.419Z,2.50
2023-02-27T06:38:58.922Z,2.13
2023-02-27T06:45:02.318Z,2.10
2023-02-27T06:51:06.022Z,2.07
2023-02-27T06:57:10.761Z,2.23
2023-02-27T07:03:14.216Z,2.10
2023-02-27T07:09:17.834Z,2.63
2023-02-27T07:15:22.626Z,2.80
2023-02-27T07:21:26.065Z,2.38
2023-02-27T07:27:29.485Z,2.38
2023-02-27T07:33:34.386Z,2.50
2023-02-27T07:39:37.820Z,3.35
2023-02-27T07:45:41.333Z,3.20
2023-02-27T07:51:46.113Z,3.35
2023-02-27T07:57:49.570Z,3.20
2023-02-27T08:03:53.024Z,2.90
2023-02-27T08:09:57.846Z,3.38
2023-02-27T08:16:01.346Z,3.05
2023-02-27T08:22:04.819Z,2.70
2023-02-27T08:28:09.830Z,2.95
2023-02-27T08:34:13.249Z,2.92
2023-02-27T08:40:16.649Z,2.60
2023-02-27T08:46:21.426Z,2.83
2023-02-27T08:52:25.104Z,2.67
2023-02-27T08:58:28.569Z,2.60
2023-02-27T09:04:33.422Z,2.47
2023-02-27T09:10:37.004Z,2.60
2023-02-27T09:16:43.277Z,2.42
2023-02-27T09:22:48.086Z,3.15
2023-02-27T09:28:51.512Z,2.58
2023-02-27T09:34:55.165Z,3.00
2023-02-27T09:41:01.299Z,3.22
2023-02-27T09:47:05.200Z,2.60
2023-02-27T09:53:14.124Z,2.65
2023-02-27T09:59:22.937Z,2.50
2023-02-27T10:05:33.063Z,2.67
2023-02-27T10:11:40.432Z,2.40
2023-02-27T10:17:48.582Z,2.20
2023-02-27T10:23:54.476Z,2.55
2023-02-27T10:30:00.182Z,2.70
2023-02-27T10:36:14.024Z,2.45
2023-02-27T10:42:21.711Z,2.40
2023-02-27T10:48:25.204Z,2.35
2023-02-27T10:54:29.941Z,2.42
2023-02-27T11:00:42.093Z,2.08
2023-02-27T11:06:45.756Z,1.90
2023-02-27T11:13:07.290Z,1.50
2023-02-27T11:19:25.214Z,1.70
2023-02-27T11:25:28.620Z,2.17
2023-02-27T11:31:33.203Z,2.20
2023-02-27T11:37:39.753Z,1.45
2023-02-27T11:43:50.201Z,1.65
2023-02-27T11:50:04.594Z,1.77
2023-02-27T11:56:12.673Z,1.50
2023-02-27T12:02:20.257Z,1.10
2023-02-27T12:08:27.823Z,1.30
2023-02-27T12:14:35.659Z,1.50
2023-02-27T12:20:42.451Z,1.55
2023-02-27T12:26:47.556Z,1.58
2023-02-27T12:32:56.080Z,2.20
2023-02-27T12:38:59.468Z,1.52
2023-02-27T12:45:21.731Z,1.50
2023-02-27T12:51:35.935Z,1.80
2023-02-27T12:57:46.969Z,1.60
2023-02-27T13:03:54.392Z,1.67
2023-02-27T13:10:01.266Z,1.63
2023-02-27T13:16:07.311Z,1.67
2023-02-27T13:22:17.359Z,2.40
2023-02-27T13:28:24.242Z,1.40
2023-02-27T13:34:30.540Z,1.25
2023-02-27T13:40:36.165Z,1.67
2023-02-27T13:46:41.201Z,1.60
2023-02-27T13:52:44.788Z,1.50
2023-02-27T13:58:48.536Z,1.33
2023-02-27T14:04:54.629Z,1.60
2023-02-27T14:11:00.397Z,1.40
2023-02-27T14:17:05.332Z,1.42
2023-02-27T14:23:20.642Z,1.58
2023-02-27T14:29:30.930Z,1.02
2023-02-27T14:35:34.560Z,1.45
2023-02-27T14:41:44.869Z,1.33
2023-02-27T14:47:48.642Z,1.23
2023-02-27T14:54:02.218Z,1.50
2023-02-27T15:00:07.796Z,1.35
2023-02-27T15:06:19.395Z,1.20
2023-02-27T15:12:24.031Z,1.30
2023-02-27T15:18:28.811Z,1.48
2023-02-27T15:24:40.646Z,1.40
2023-02-27T15:30:53.038Z,1.67
2023-02-27T15:36:59.127Z,1.48
2023-02-27T15:43:03.399Z,1.80
2023-02-27T15:49:07.200Z,2.08
2023-02-27T15:55:15.409Z,1.70
2023-02-27T16:01:20.303Z,1.92
2023-02-27T16:07:24.948Z,1.33
2023-02-27T16:13:34.991Z,2.28
2023-02-27T16:19:42.292Z,1.67
2023-02-27T16:26:01.122Z,4.35
2023-02-27T16:32:06.236Z,1.58
2023-02-27T16:38:10.403Z,1.20
2023-02-27T16:44:13.983Z,1.55
2023-02-27T16:50:21.478Z,1.45
2023-02-27T16:56:37.379Z,2.00
2023-02-27T17:02:42.992Z,2.33
2023-02-27T17:08:48.004Z,1.70
2023-02-27T17:14:51.417Z,1.92
2023-02-27T17:20:57.048Z,3.60
2023-02-27T17:27:01.814Z,2.80
2023-02-27T17:33:05.325Z,2.83
2023-02-27T17:39:09.130Z,3.00
2023-02-27T17:45:14.572Z,3.90
2023-02-27T17:51:18.670Z,4.40
2023-02-27T17:57:22.114Z,4.63
2023-02-27T18:03:26.998Z,3.60
2023-02-27T18:09:30.539Z,3.60
2023-02-27T18:15:34.023Z,5.03
2023-02-27T18:21:38.910Z,7.65
2023-02-27T18:27:42.452Z,3.45
2023-02-27T18:33:46.003Z,3.78
2023-02-27T18:39:50.813Z,4.22
2023-02-27T18:45:54.258Z,3.20
2023-02-27T18:51:57.805Z,4.30
2023-02-27T18:58:05.204Z,5.05
2023-02-27T19:04:10.495Z,14.82
2023-02-27T19:10:15.108Z,4.82
2023-02-27T19:16:19.968Z,5.03
2023-02-27T19:22:23.569Z,4.97
2023-02-27T19:28:27.265Z,5.03
2023-02-27T19:34:32.034Z,4.70
2023-02-27T19:40:35.451Z,5.78
2023-02-27T19:46:41.192Z,5.93
2023-02-27T19:52:46.119Z,5.35
2023-02-27T19:58:49.826Z,4.80
2023-02-27T20:04:53.673Z,4.68
2023-02-27T20:10:59.159Z,5.07
2023-02-27T20:17:04.011Z,5.35
2023-02-27T20:23:07.449Z,5.80
2023-02-27T20:29:13.576Z,5.28
2023-02-27T20:35:17.029Z,5.80
2023-02-27T20:41:21.514Z,5.07
2023-02-27T20:47:26.357Z,4.57
2023-02-27T20:53:29.820Z,4.18
2023-02-27T20:59:33.256Z,5.20
2023-02-27T21:05:38.231Z,5.45
2023-02-27T21:11:41.848Z,8.70
2023-02-27T21:17:45.281Z,7.05
2023-02-27T21:23:50.381Z,5.90
2023-02-27T21:29:53.817Z,7.78
2023-02-27T21:35:57.486Z,6.20
2023-02-27T21:42:02.571Z,4.90
2023-02-27T21:48:06.109Z,5.20
2023-02-27T21:54:11.692Z,5.07
2023-02-27T22:00:16.954Z,4.75
2023-02-27T22:06:21.945Z,4.43
2023-02-27T22:12:26.136Z,5.13
2023-02-27T22:18:30.954Z,4.97
2023-02-27T22:24:34.405Z,3.78
2023-02-27T22:30:37.817Z,4.35
2023-02-27T22:36:42.671Z,4.10
2023-02-27T22:42:46.133Z,4.50
2023-02-27T22:48:49.565Z,4.47
2023-02-27T22:54:54.442Z,4.18
2023-02-27T23:00:57.861Z,3.92
2023-02-27T23:07:01.763Z,3.70
2023-02-27T23:13:06.543Z,3.75
2023-02-27T23:19:09.924Z,3.90
2023-02-27T23:25:13.341Z,3.90
2023-02-27T23:31:18.343Z,4.30
2023-02-27T23:37:21.896Z,3.97
2023-02-27T23:43:25.274Z,4.50
2023-02-27T23:49:30.116Z,3.65
2023-02-27T23:55:34.633Z,4.05
